sensor_id;sensor_type;location;lat;lon;timestamp;temperature;humidity
10889;DHT22;5497;51.388;6.780;2023-01-28T00:01:50;4.10;99.90
10889;DHT22;5497;51.388;6.780;2023-01-28T00:04:18;4.10;99.90
10889;DHT22;5497;51.388;6.780;2023-01-28T00:06:45;4.10;99.90
10889;DHT22;5497;51.388;6.780;2023-01-28T00:09:11;4.00;99.90
10889;DHT22;5497;51.388;6.780;2023-01-28T00:11:38;4.00;99.90
10889;DHT22;5497;51.388;6.780;2023-01-28T00:14:05;3.90;99.90
10889;DHT22;5497;51.388;6.780;2023-01-28T00:16:32;3.90;99.90
10889;DHT22;5497;51.388;6.780;2023-01-28T00:18:59;3.90;99.90
10889;DHT22;5497;51.388;6.780;2023-01-28T00:21:27;3.90;99.90
10889;DHT22;5497;51.388;6.780;2023-01-28T00:23:54;3.90;99.90
10889;DHT22;5497;51.388;6.780;2023-01-28T00:26:21;3.90;99.90
10889;DHT22;5497;51.388;6.780;2023-01-28T00:28:49;3.80;99.90
10889;DHT22;5497;51.388;6.780;2023-01-28T00:31:17;3.80;99.90
10889;DHT22;5497;51.388;6.780;2023-01-28T00:33:44;3.80;99.90
10889;DHT22;5497;51.388;6.780;2023-01-28T00:36:11;3.80;99.90
10889;DHT22;5497;51.388;6.780;2023-01-28T00:38:40;3.80;99.90
10889;DHT22;5497;51.388;6.780;2023-01-28T00:41:07;3.80;99.90
10889;DHT22;5497;51.388;6.780;2023-01-28T00:43:34;3.60;99.90
10889;DHT22;5497;51.388;6.780;2023-01-28T00:46:01;3.80;99.90
10889;DHT22;5497;51.388;6.780;2023-01-28T00:48:28;3.80;99.90
10889;DHT22;5497;51.388;6.780;2023-01-28T00:50:55;3.70;99.90
10889;DHT22;5497;51.388;6.780;2023-01-28T00:53:21;3.60;99.90
10889;DHT22;5497;51.388;6.780;2023-01-28T00:55:50;4.10;99.90
10889;DHT22;5497;51.388;6.780;2023-01-28T00:58:17;3.60;99.90
10889;DHT22;5497;51.388;6.780;2023-01-28T01:00:43;3.60;99.90
10889;DHT22;5497;51.388;6.780;2023-01-28T01:03:10;3.50;99.90
10889;DHT22;5497;51.388;6.780;2023-01-28T01:05:37;3.50;99.90
10889;DHT22;5497;51.388;6.780;2023-01-28T01:08:06;3.50;99.90
10889;DHT22;5497;51.388;6.780;2023-01-28T01:10:32;3.50;99.90
10889;DHT22;5497;51.388;6.780;2023-01-28T01:13:01;3.50;99.90
10889;DHT22;5497;51.388;6.780;2023-01-28T01:15:28;3.60;99.90
10889;DHT22;5497;51.388;6.780;2023-01-28T01:17:55;3.60;99.90
10889;DHT22;5497;51.388;6.780;2023-01-28T01:20:22;3.60;99.90
10889;DHT22;5497;51.388;6.780;2023-01-28T01:22:49;3.60;99.90
10889;DHT22;5497;51.388;6.780;2023-01-28T01:25:16;3.60;99.90
10889;DHT22;5497;51.388;6.780;2023-01-28T01:27:44;3.60;99.90
10889;DHT22;5497;51.388;6.780;2023-01-28T01:30:13;3.60;99.90
10889;DHT22;5497;51.388;6.780;2023-01-28T01:32:40;3.60;99.90
10889;DHT22;5497;51.388;6.780;2023-01-28T01:35:08;3.60;99.90
10889;DHT22;5497;51.388;6.780;2023-01-28T01:37:36;3.60;99.90
10889;DHT22;5497;51.388;6.780;2023-01-28T01:40:03;3.60;99.90
10889;DHT22;5497;51.388;6.780;2023-01-28T01:42:30;3.60;99.90
10889;DHT22;5497;51.388;6.780;2023-01-28T01:44:58;3.60;99.90
10889;DHT22;5497;51.388;6.780;2023-01-28T01:47:28;3.50;99.90
10889;DHT22;5497;51.388;6.780;2023-01-28T01:49:57;3.50;99.90
10889;DHT22;5497;51.388;6.780;2023-01-28T01:52:27;3.50;99.90
10889;DHT22;5497;51.388;6.780;2023-01-28T01:54:55;3.50;99.90
10889;DHT22;5497;51.388;6.780;2023-01-28T01:57:23;3.50;99.90
10889;DHT22;5497;51.388;6.780;2023-01-28T01:59:52;3.50;99.90
10889;DHT22;5497;51.388;6.780;2023-01-28T02:02:19;3.50;99.90
10889;DHT22;5497;51.388;6.780;2023-01-28T02:04:47;3.50;99.90
10889;DHT22;5497;51.388;6.780;2023-01-28T02:07:15;3.50;99.90
10889;DHT22;5497;51.388;6.780;2023-01-28T02:09:42;4.40;99.90
10889;DHT22;5497;51.388;6.780;2023-01-28T02:12:10;1.90;99.90
10889;DHT22;5497;51.388;6.780;2023-01-28T02:14:40;3.40;99.90
10889;DHT22;5497;51.388;6.780;2023-01-28T02:17:07;3.30;99.90
10889;DHT22;5497;51.388;6.780;2023-01-28T02:19:35;3.30;99.90
10889;DHT22;5497;51.388;6.780;2023-01-28T02:22:17;3.20;99.90
10889;DHT22;5497;51.388;6.780;2023-01-28T02:24:50;3.10;99.90
10889;DHT22;5497;51.388;6.780;2023-01-28T02:27:21;3.10;99.90
10889;DHT22;5497;51.388;6.780;2023-01-28T02:29:52;3.10;99.90
10889;DHT22;5497;51.388;6.780;2023-01-28T02:32:23;3.10;99.90
10889;DHT22;5497;51.388;6.780;2023-01-28T02:34:51;3.00;99.90
10889;DHT22;5497;51.388;6.780;2023-01-28T02:37:21;3.00;99.90
10889;DHT22;5497;51.388;6.780;2023-01-28T02:39:51;3.10;99.90
10889;DHT22;5497;51.388;6.780;2023-01-28T02:42:20;3.10;99.90
10889;DHT22;5497;51.388;6.780;2023-01-28T02:44:48;3.10;99.90
10889;DHT22;5497;51.388;6.780;2023-01-28T02:47:16;3.10;99.90
10889;DHT22;5497;51.388;6.780;2023-01-28T02:50:02;3.10;99.90
10889;DHT22;5497;51.388;6.780;2023-01-28T02:52:33;3.10;99.90
10889;DHT22;5497;51.388;6.780;2023-01-28T02:55:22;3.10;99.90
10889;DHT22;5497;51.388;6.780;2023-01-28T02:57:54;3.00;99.90
10889;DHT22;5497;51.388;6.780;2023-01-28T03:00:24;3.10;99.90
10889;DHT22;5497;51.388;6.780;2023-01-28T03:02:55;3.00;99.90
10889;DHT22;5497;51.388;6.780;2023-01-28T03:05:24;3.00;99.90
10889;DHT22;5497;51.388;6.780;2023-01-28T03:07:52;3.20;99.90
10889;DHT22;5497;51.388;6.780;2023-01-28T03:10:20;3.00;99.90
10889;DHT22;5497;51.388;6.780;2023-01-28T03:12:47;3.00;99.90
10889;DHT22;5497;51.388;6.780;2023-01-28T03:15:36;2.90;99.90
10889;DHT22;5497;51.388;6.780;2023-01-28T03:18:22;3.00;99.90
10889;DHT22;5497;51.388;6.780;2023-01-28T03:21:09;3.00;99.90
10889;DHT22;5497;51.388;6.780;2023-01-28T03:23:56;3.00;99.90
10889;DHT22;5497;51.388;6.780;2023-01-28T03:26:44;3.00;99.90
10889;DHT22;5497;51.388;6.780;2023-01-28T03:29:31;3.00;99.90
10889;DHT22;5497;51.388;6.780;2023-01-28T03:32:18;3.00;99.90
10889;DHT22;5497;51.388;6.780;2023-01-28T03:35:05;3.00;99.90
10889;DHT22;5497;51.388;6.780;2023-01-28T03:37:50;3.00;99.90
10889;DHT22;5497;51.388;6.780;2023-01-28T03:40:21;3.10;99.90
10889;DHT22;5497;51.388;6.780;2023-01-28T03:42:48;3.10;99.90
10889;DHT22;5497;51.388;6.780;2023-01-28T03:45:32;3.60;99.90
10889;DHT22;5497;51.388;6.780;2023-01-28T03:48:02;3.10;99.90
10889;DHT22;5497;51.388;6.780;2023-01-28T03:50:30;3.00;99.90
10889;DHT22;5497;51.388;6.780;2023-01-28T03:53:00;3.00;99.90
10889;DHT22;5497;51.388;6.780;2023-01-28T03:55:57;3.00;99.90
10889;DHT22;5497;51.388;6.780;2023-01-28T03:58:24;3.10;99.90
10889;DHT22;5497;51.388;6.780;2023-01-28T04:01:11;3.10;99.90
10889;DHT22;5497;51.388;6.780;2023-01-28T04:03:38;3.10;99.90
10889;DHT22;5497;51.388;6.780;2023-01-28T04:06:11;3.10;99.90
10889;DHT22;5497;51.388;6.780;2023-01-28T04:09:04;3.10;99.90
10889;DHT22;5497;51.388;6.780;2023-01-28T04:11:39;3.20;99.90
10889;DHT22;5497;51.388;6.780;2023-01-28T04:14:07;3.20;99.90
10889;DHT22;5497;51.388;6.780;2023-01-28T04:16:49;3.20;99.90
10889;DHT22;5497;51.388;6.780;2023-01-28T04:19:17;3.10;99.90
10889;DHT22;5497;51.388;6.780;2023-01-28T04:21:45;3.10;99.90
10889;DHT22;5497;51.388;6.780;2023-01-28T04:24:13;3.00;99.90
10889;DHT22;5497;51.388;6.780;2023-01-28T04:26:40;3.00;99.90
10889;DHT22;5497;51.388;6.780;2023-01-28T04:29:07;3.00;99.90
10889;DHT22;5497;51.388;6.780;2023-01-28T04:31:35;3.00;99.90
10889;DHT22;5497;51.388;6.780;2023-01-28T04:34:17;3.00;99.90
10889;DHT22;5497;51.388;6.780;2023-01-28T04:37:16;3.00;99.90
10889;DHT22;5497;51.388;6.780;2023-01-28T04:40:01;2.90;99.90
10889;DHT22;5497;51.388;6.780;2023-01-28T04:42:51;2.90;99.90
10889;DHT22;5497;51.388;6.780;2023-01-28T04:45:38;2.90;99.90
10889;DHT22;5497;51.388;6.780;2023-01-28T04:48:23;3.00;99.90
10889;DHT22;5497;51.388;6.780;2023-01-28T04:51:04;3.00;99.90
10889;DHT22;5497;51.388;6.780;2023-01-28T04:53:40;3.10;99.90
10889;DHT22;5497;51.388;6.780;2023-01-28T04:56:22;3.10;99.90
10889;DHT22;5497;51.388;6.780;2023-01-28T04:58:50;3.10;99.90
10889;DHT22;5497;51.388;6.780;2023-01-28T05:01:16;3.20;99.90
10889;DHT22;5497;51.388;6.780;2023-01-28T05:03:43;3.10;99.90
10889;DHT22;5497;51.388;6.780;2023-01-28T05:06:18;3.20;99.90
10889;DHT22;5497;51.388;6.780;2023-01-28T05:08:47;3.20;99.90
10889;DHT22;5497;51.388;6.780;2023-01-28T05:11:15;3.20;99.90
10889;DHT22;5497;51.388;6.780;2023-01-28T05:13:43;3.10;99.90
10889;DHT22;5497;51.388;6.780;2023-01-28T05:16:12;3.20;99.90
10889;DHT22;5497;51.388;6.780;2023-01-28T05:18:39;3.20;99.90
10889;DHT22;5497;51.388;6.780;2023-01-28T05:21:14;3.20;99.90
10889;DHT22;5497;51.388;6.780;2023-01-28T05:23:42;3.20;99.90
10889;DHT22;5497;51.388;6.780;2023-01-28T05:26:10;3.20;99.90
10889;DHT22;5497;51.388;6.780;2023-01-28T05:28:37;3.20;99.90
10889;DHT22;5497;51.388;6.780;2023-01-28T05:31:04;3.10;99.90
10889;DHT22;5497;51.388;6.780;2023-01-28T05:33:32;3.10;99.90
10889;DHT22;5497;51.388;6.780;2023-01-28T05:35:59;3.10;99.90
10889;DHT22;5497;51.388;6.780;2023-01-28T05:38:26;3.00;99.90
10889;DHT22;5497;51.388;6.780;2023-01-28T05:40:53;2.90;99.90
10889;DHT22;5497;51.388;6.780;2023-01-28T05:43:22;2.90;99.90
10889;DHT22;5497;51.388;6.780;2023-01-28T05:46:11;2.90;99.90
10889;DHT22;5497;51.388;6.780;2023-01-28T05:48:56;3.00;99.90
10889;DHT22;5497;51.388;6.780;2023-01-28T05:51:42;3.10;99.90
10889;DHT22;5497;51.388;6.780;2023-01-28T05:54:11;3.40;99.90
10889;DHT22;5497;51.388;6.780;2023-01-28T05:56:38;3.10;99.90
10889;DHT22;5497;51.388;6.780;2023-01-28T05:59:07;3.00;99.90
10889;DHT22;5497;51.388;6.780;2023-01-28T06:01:34;3.00;99.90
10889;DHT22;5497;51.388;6.780;2023-01-28T06:04:01;3.00;99.90
10889;DHT22;5497;51.388;6.780;2023-01-28T06:06:29;2.90;99.90
10889;DHT22;5497;51.388;6.780;2023-01-28T06:08:56;2.90;99.90
10889;DHT22;5497;51.388;6.780;2023-01-28T06:11:26;2.80;99.90
10889;DHT22;5497;51.388;6.780;2023-01-28T06:13:56;2.80;99.90
10889;DHT22;5497;51.388;6.780;2023-01-28T06:17:03;2.80;99.90
10889;DHT22;5497;51.388;6.780;2023-01-28T06:19:48;2.70;99.90
10889;DHT22;5497;51.388;6.780;2023-01-28T06:22:15;2.70;99.90
10889;DHT22;5497;51.388;6.780;2023-01-28T06:24:42;2.70;99.90
10889;DHT22;5497;51.388;6.780;2023-01-28T06:27:09;2.80;99.90
10889;DHT22;5497;51.388;6.780;2023-01-28T06:29:35;2.80;99.90
10889;DHT22;5497;51.388;6.780;2023-01-28T06:32:04;2.90;99.90
10889;DHT22;5497;51.388;6.780;2023-01-28T06:34:31;2.90;99.90
10889;DHT22;5497;51.388;6.780;2023-01-28T06:36:58;2.90;99.90
10889;DHT22;5497;51.388;6.780;2023-01-28T06:39:24;3.40;99.90
10889;DHT22;5497;51.388;6.780;2023-01-28T06:41:52;2.90;99.90
10889;DHT22;5497;51.388;6.780;2023-01-28T06:44:19;2.90;99.90
10889;DHT22;5497;51.388;6.780;2023-01-28T06:46:48;2.80;99.90
10889;DHT22;5497;51.388;6.780;2023-01-28T06:49:16;2.90;99.90
10889;DHT22;5497;51.388;6.780;2023-01-28T06:51:43;2.90;99.90
10889;DHT22;5497;51.388;6.780;2023-01-28T06:54:09;2.90;99.90
10889;DHT22;5497;51.388;6.780;2023-01-28T06:56:36;2.90;99.90
10889;DHT22;5497;51.388;6.780;2023-01-28T06:59:03;2.90;99.90
10889;DHT22;5497;51.388;6.780;2023-01-28T07:01:30;2.80;99.90
10889;DHT22;5497;51.388;6.780;2023-01-28T07:03:56;2.80;99.90
10889;DHT22;5497;51.388;6.780;2023-01-28T07:06:24;2.80;99.90
10889;DHT22;5497;51.388;6.780;2023-01-28T07:08:51;2.70;99.90
10889;DHT22;5497;51.388;6.780;2023-01-28T07:11:18;2.70;99.90
10889;DHT22;5497;51.388;6.780;2023-01-28T07:13:44;2.70;99.90
10889;DHT22;5497;51.388;6.780;2023-01-28T07:16:11;2.70;99.90
10889;DHT22;5497;51.388;6.780;2023-01-28T07:18:38;2.60;99.90
10889;DHT22;5497;51.388;6.780;2023-01-28T07:21:05;2.60;99.90
10889;DHT22;5497;51.388;6.780;2023-01-28T07:23:33;2.60;99.90
10889;DHT22;5497;51.388;6.780;2023-01-28T07:26:00;2.60;99.90
10889;DHT22;5497;51.388;6.780;2023-01-28T07:28:27;2.60;99.90
10889;DHT22;5497;51.388;6.780;2023-01-28T07:30:54;2.70;99.90
10889;DHT22;5497;51.388;6.780;2023-01-28T07:33:20;2.70;99.90
10889;DHT22;5497;51.388;6.780;2023-01-28T07:35:47;2.70;99.90
10889;DHT22;5497;51.388;6.780;2023-01-28T07:38:14;2.80;99.90
10889;DHT22;5497;51.388;6.780;2023-01-28T07:40:42;2.80;99.90
10889;DHT22;5497;51.388;6.780;2023-01-28T07:43:09;2.80;99.90
10889;DHT22;5497;51.388;6.780;2023-01-28T07:45:38;3.10;99.90
10889;DHT22;5497;51.388;6.780;2023-01-28T07:48:05;2.70;99.90
10889;DHT22;5497;51.388;6.780;2023-01-28T07:50:33;2.70;99.90
10889;DHT22;5497;51.388;6.780;2023-01-28T07:53:01;2.90;99.90
10889;DHT22;5497;51.388;6.780;2023-01-28T07:55:28;2.70;99.90
10889;DHT22;5497;51.388;6.780;2023-01-28T07:57:56;2.70;99.90
10889;DHT22;5497;51.388;6.780;2023-01-28T08:00:24;2.70;99.90
10889;DHT22;5497;51.388;6.780;2023-01-28T08:02:54;2.70;99.90
10889;DHT22;5497;51.388;6.780;2023-01-28T08:05:21;2.50;99.90
10889;DHT22;5497;51.388;6.780;2023-01-28T08:07:47;2.70;99.90
10889;DHT22;5497;51.388;6.780;2023-01-28T08:10:14;3.50;99.90
10889;DHT22;5497;51.388;6.780;2023-01-28T08:12:49;2.80;99.90
10889;DHT22;5497;51.388;6.780;2023-01-28T08:15:17;2.90;99.90
10889;DHT22;5497;51.388;6.780;2023-01-28T08:17:44;3.00;99.90
10889;DHT22;5497;51.388;6.780;2023-01-28T08:20:11;3.00;99.90
10889;DHT22;5497;51.388;6.780;2023-01-28T08:22:38;3.10;99.90
10889;DHT22;5497;51.388;6.780;2023-01-28T08:25:05;3.20;99.90
10889;DHT22;5497;51.388;6.780;2023-01-28T08:27:31;3.30;99.90
10889;DHT22;5497;51.388;6.780;2023-01-28T08:29:58;3.30;99.90
10889;DHT22;5497;51.388;6.780;2023-01-28T08:32:27;3.40;99.90
10889;DHT22;5497;51.388;6.780;2023-01-28T08:35:09;3.40;99.90
10889;DHT22;5497;51.388;6.780;2023-01-28T08:37:36;3.20;99.90
10889;DHT22;5497;51.388;6.780;2023-01-28T08:40:03;3.50;99.90
10889;DHT22;5497;51.388;6.780;2023-01-28T08:42:30;3.50;99.90
10889;DHT22;5497;51.388;6.780;2023-01-28T08:44:57;3.40;99.90
10889;DHT22;5497;51.388;6.780;2023-01-28T08:47:23;3.40;99.90
10889;DHT22;5497;51.388;6.780;2023-01-28T08:49:51;3.40;99.90
10889;DHT22;5497;51.388;6.780;2023-01-28T08:52:18;3.40;99.90
10889;DHT22;5497;51.388;6.780;2023-01-28T08:54:45;3.30;99.90
10889;DHT22;5497;51.388;6.780;2023-01-28T08:57:12;3.40;99.90
10889;DHT22;5497;51.388;6.780;2023-01-28T08:59:39;3.30;99.90
10889;DHT22;5497;51.388;6.780;2023-01-28T09:02:11;3.30;99.90
10889;DHT22;5497;51.388;6.780;2023-01-28T09:04:38;3.20;99.90
10889;DHT22;5497;51.388;6.780;2023-01-28T09:07:09;3.20;99.90
10889;DHT22;5497;51.388;6.780;2023-01-28T09:09:35;3.10;99.90
10889;DHT22;5497;51.388;6.780;2023-01-28T09:12:02;3.10;99.90
10889;DHT22;5497;51.388;6.780;2023-01-28T09:14:30;3.10;99.90
10889;DHT22;5497;51.388;6.780;2023-01-28T09:16:57;3.10;99.90
10889;DHT22;5497;51.388;6.780;2023-01-28T09:19:24;3.10;99.90
10889;DHT22;5497;51.388;6.780;2023-01-28T09:21:50;3.10;99.90
10889;DHT22;5497;51.388;6.780;2023-01-28T09:24:19;3.10;99.90
10889;DHT22;5497;51.388;6.780;2023-01-28T09:26:47;3.20;99.90
10889;DHT22;5497;51.388;6.780;2023-01-28T09:29:14;3.20;99.90
10889;DHT22;5497;51.388;6.780;2023-01-28T09:31:41;3.10;99.90
10889;DHT22;5497;51.388;6.780;2023-01-28T09:34:08;3.20;99.90
10889;DHT22;5497;51.388;6.780;2023-01-28T09:36:35;3.60;99.90
10889;DHT22;5497;51.388;6.780;2023-01-28T09:39:02;3.50;99.90
10889;DHT22;5497;51.388;6.780;2023-01-28T09:41:32;3.40;99.90
10889;DHT22;5497;51.388;6.780;2023-01-28T09:44:03;3.40;99.90
10889;DHT22;5497;51.388;6.780;2023-01-28T09:46:32;3.50;99.90
10889;DHT22;5497;51.388;6.780;2023-01-28T09:48:59;3.60;99.90
10889;DHT22;5497;51.388;6.780;2023-01-28T09:51:30;3.50;99.90
10889;DHT22;5497;51.388;6.780;2023-01-28T09:53:58;2.70;99.90
10889;DHT22;5497;51.388;6.780;2023-01-28T09:56:28;3.50;99.90
10889;DHT22;5497;51.388;6.780;2023-01-28T09:58:57;3.50;99.90
10889;DHT22;5497;51.388;6.780;2023-01-28T10:01:34;3.50;99.90
10889;DHT22;5497;51.388;6.780;2023-01-28T10:04:02;3.50;99.90
10889;DHT22;5497;51.388;6.780;2023-01-28T10:06:33;3.70;99.90
10889;DHT22;5497;51.388;6.780;2023-01-28T10:09:13;3.50;99.90
10889;DHT22;5497;51.388;6.780;2023-01-28T10:11:48;3.80;99.90
10889;DHT22;5497;51.388;6.780;2023-01-28T10:14:19;3.80;99.90
10889;DHT22;5497;51.388;6.780;2023-01-28T10:16:49;3.80;99.90
10889;DHT22;5497;51.388;6.780;2023-01-28T10:19:18;3.70;99.90
10889;DHT22;5497;51.388;6.780;2023-01-28T10:21:48;3.70;99.90
10889;DHT22;5497;51.388;6.780;2023-01-28T10:24:16;3.70;99.90
10889;DHT22;5497;51.388;6.780;2023-01-28T10:26:44;3.70;99.90
10889;DHT22;5497;51.388;6.780;2023-01-28T10:29:11;3.80;99.90
10889;DHT22;5497;51.388;6.780;2023-01-28T10:31:43;3.80;99.90
10889;DHT22;5497;51.388;6.780;2023-01-28T10:34:12;3.90;99.90
10889;DHT22;5497;51.388;6.780;2023-01-28T10:36:39;4.10;99.90
10889;DHT22;5497;51.388;6.780;2023-01-28T10:39:06;4.90;99.90
10889;DHT22;5497;51.388;6.780;2023-01-28T10:41:33;4.30;99.90
10889;DHT22;5497;51.388;6.780;2023-01-28T10:44:00;4.30;99.90
10889;DHT22;5497;51.388;6.780;2023-01-28T10:46:27;4.30;99.90
10889;DHT22;5497;51.388;6.780;2023-01-28T10:48:59;4.50;99.90
10889;DHT22;5497;51.388;6.780;2023-01-28T10:51:31;4.70;99.90
10889;DHT22;5497;51.388;6.780;2023-01-28T10:53:58;4.70;99.90
10889;DHT22;5497;51.388;6.780;2023-01-28T10:56:25;4.80;99.90
10889;DHT22;5497;51.388;6.780;2023-01-28T10:58:56;4.90;99.90
10889;DHT22;5497;51.388;6.780;2023-01-28T11:01:24;4.80;99.90
10889;DHT22;5497;51.388;6.780;2023-01-28T11:03:52;4.80;99.90
10889;DHT22;5497;51.388;6.780;2023-01-28T11:06:28;4.70;99.90
10889;DHT22;5497;51.388;6.780;2023-01-28T11:08:55;4.70;99.90
10889;DHT22;5497;51.388;6.780;2023-01-28T11:11:23;4.40;99.90
10889;DHT22;5497;51.388;6.780;2023-01-28T11:13:51;4.50;99.90
10889;DHT22;5497;51.388;6.780;2023-01-28T11:16:19;4.40;99.90
10889;DHT22;5497;51.388;6.780;2023-01-28T11:18:47;4.20;99.90
10889;DHT22;5497;51.388;6.780;2023-01-28T11:21:17;3.90;99.90
10889;DHT22;5497;51.388;6.780;2023-01-28T11:23:48;3.90;99.90
10889;DHT22;5497;51.388;6.780;2023-01-28T11:26:17;3.90;99.90
10889;DHT22;5497;51.388;6.780;2023-01-28T11:28:44;3.90;99.90
10889;DHT22;5497;51.388;6.780;2023-01-28T11:31:13;3.90;99.90
10889;DHT22;5497;51.388;6.780;2023-01-28T11:33:42;3.90;99.90
10889;DHT22;5497;51.388;6.780;2023-01-28T11:36:12;3.90;99.90
10889;DHT22;5497;51.388;6.780;2023-01-28T11:38:47;3.80;99.90
10889;DHT22;5497;51.388;6.780;2023-01-28T11:41:15;3.70;99.90
10889;DHT22;5497;51.388;6.780;2023-01-28T11:43:42;3.70;99.90
10889;DHT22;5497;51.388;6.780;2023-01-28T11:46:16;3.90;99.90
10889;DHT22;5497;51.388;6.780;2023-01-28T11:48:49;4.10;99.90
10889;DHT22;5497;51.388;6.780;2023-01-28T11:51:21;4.20;99.90
10889;DHT22;5497;51.388;6.780;2023-01-28T11:53:55;4.30;99.90
10889;DHT22;5497;51.388;6.780;2023-01-28T11:59:29;4.10;99.90
10889;DHT22;5497;51.388;6.780;2023-01-28T12:02:02;4.10;99.90
10889;DHT22;5497;51.388;6.780;2023-01-28T12:04:37;4.00;99.90
10889;DHT22;5497;51.388;6.780;2023-01-28T12:07:15;3.90;99.90
10889;DHT22;5497;51.388;6.780;2023-01-28T12:09:48;4.00;99.90
10889;DHT22;5497;51.388;6.780;2023-01-28T12:12:24;4.00;99.90
10889;DHT22;5497;51.388;6.780;2023-01-28T12:15:03;4.00;99.90
10889;DHT22;5497;51.388;6.780;2023-01-28T12:17:35;4.30;99.90
10889;DHT22;5497;51.388;6.780;2023-01-28T12:20:07;4.40;99.90
10889;DHT22;5497;51.388;6.780;2023-01-28T12:22:53;4.60;99.90
10889;DHT22;5497;51.388;6.780;2023-01-28T12:25:27;4.60;99.90
10889;DHT22;5497;51.388;6.780;2023-01-28T12:28:00;4.70;99.90
10889;DHT22;5497;51.388;6.780;2023-01-28T12:30:32;4.60;99.90
10889;DHT22;5497;51.388;6.780;2023-01-28T12:33:07;4.60;99.90
10889;DHT22;5497;51.388;6.780;2023-01-28T12:35:47;4.70;99.90
10889;DHT22;5497;51.388;6.780;2023-01-28T12:38:18;4.70;99.90
10889;DHT22;5497;51.388;6.780;2023-01-28T12:40:53;4.90;99.90
10889;DHT22;5497;51.388;6.780;2023-01-28T12:43:25;5.10;99.90
10889;DHT22;5497;51.388;6.780;2023-01-28T12:45:53;5.30;99.90
10889;DHT22;5497;51.388;6.780;2023-01-28T12:48:21;5.50;99.90
10889;DHT22;5497;51.388;6.780;2023-01-28T12:50:50;5.70;99.90
10889;DHT22;5497;51.388;6.780;2023-01-28T12:53:21;5.70;99.90
10889;DHT22;5497;51.388;6.780;2023-01-28T12:55:50;5.60;99.90
10889;DHT22;5497;51.388;6.780;2023-01-28T12:58:21;5.40;99.90
10889;DHT22;5497;51.388;6.780;2023-01-28T13:00:50;6.20;99.90
10889;DHT22;5497;51.388;6.780;2023-01-28T13:03:19;4.90;99.90
10889;DHT22;5497;51.388;6.780;2023-01-28T13:05:48;4.80;99.90
10889;DHT22;5497;51.388;6.780;2023-01-28T13:08:16;4.90;99.90
10889;DHT22;5497;51.388;6.780;2023-01-28T13:10:45;4.80;99.90
10889;DHT22;5497;51.388;6.780;2023-01-28T13:13:14;4.90;99.90
10889;DHT22;5497;51.388;6.780;2023-01-28T13:15:43;4.80;99.90
10889;DHT22;5497;51.388;6.780;2023-01-28T13:18:27;4.90;99.90
10889;DHT22;5497;51.388;6.780;2023-01-28T13:20:55;4.80;99.90
10889;DHT22;5497;51.388;6.780;2023-01-28T13:23:23;4.90;99.90
10889;DHT22;5497;51.388;6.780;2023-01-28T13:25:51;4.90;99.90
10889;DHT22;5497;51.388;6.780;2023-01-28T13:28:25;5.00;99.90
10889;DHT22;5497;51.388;6.780;2023-01-28T13:30:59;5.10;99.90
10889;DHT22;5497;51.388;6.780;2023-01-28T13:33:28;5.20;99.90
10889;DHT22;5497;51.388;6.780;2023-01-28T13:35:55;5.50;99.90
10889;DHT22;5497;51.388;6.780;2023-01-28T13:38:22;5.70;99.90
10889;DHT22;5497;51.388;6.780;2023-01-28T13:40:53;5.90;99.90
10889;DHT22;5497;51.388;6.780;2023-01-28T13:43:25;5.90;99.90
10889;DHT22;5497;51.388;6.780;2023-01-28T13:45:57;5.80;99.90
10889;DHT22;5497;51.388;6.780;2023-01-28T13:48:28;5.80;99.90
10889;DHT22;5497;51.388;6.780;2023-01-28T13:50:56;6.00;99.90
10889;DHT22;5497;51.388;6.780;2023-01-28T13:53:26;6.00;99.90
10889;DHT22;5497;51.388;6.780;2023-01-28T13:55:55;6.10;99.90
10889;DHT22;5497;51.388;6.780;2023-01-28T13:58:40;6.30;99.90
10889;DHT22;5497;51.388;6.780;2023-01-28T14:01:31;6.50;99.90
10889;DHT22;5497;51.388;6.780;2023-01-28T14:04:17;6.70;99.90
10889;DHT22;5497;51.388;6.780;2023-01-28T14:06:58;6.80;99.90
10889;DHT22;5497;51.388;6.780;2023-01-28T14:09:32;6.90;99.90
10889;DHT22;5497;51.388;6.780;2023-01-28T14:12:11;6.90;99.90
10889;DHT22;5497;51.388;6.780;2023-01-28T14:14:49;6.80;99.90
10889;DHT22;5497;51.388;6.780;2023-01-28T14:17:21;6.50;99.90
10889;DHT22;5497;51.388;6.780;2023-01-28T14:19:53;6.20;99.90
10889;DHT22;5497;51.388;6.780;2023-01-28T14:22:20;6.00;99.90
10889;DHT22;5497;51.388;6.780;2023-01-28T14:24:47;5.90;99.90
10889;DHT22;5497;51.388;6.780;2023-01-28T14:27:15;5.60;99.90
10889;DHT22;5497;51.388;6.780;2023-01-28T14:29:45;5.40;99.90
10889;DHT22;5497;51.388;6.780;2023-01-28T14:32:15;5.40;99.90
10889;DHT22;5497;51.388;6.780;2023-01-28T14:34:43;5.40;99.90
10889;DHT22;5497;51.388;6.780;2023-01-28T14:37:12;5.30;99.90
10889;DHT22;5497;51.388;6.780;2023-01-28T14:39:40;5.50;99.90
10889;DHT22;5497;51.388;6.780;2023-01-28T14:42:10;5.00;99.90
10889;DHT22;5497;51.388;6.780;2023-01-28T14:44:39;4.80;99.90
10889;DHT22;5497;51.388;6.780;2023-01-28T14:47:14;4.70;99.90
10889;DHT22;5497;51.388;6.780;2023-01-28T14:49:47;4.60;99.90
10889;DHT22;5497;51.388;6.780;2023-01-28T14:52:24;4.60;99.90
10889;DHT22;5497;51.388;6.780;2023-01-28T14:54:57;4.50;99.90
10889;DHT22;5497;51.388;6.780;2023-01-28T14:57:35;4.50;99.90
10889;DHT22;5497;51.388;6.780;2023-01-28T15:00:13;4.50;99.90
10889;DHT22;5497;51.388;6.780;2023-01-28T15:02:42;4.40;99.90
10889;DHT22;5497;51.388;6.780;2023-01-28T15:05:13;4.40;99.90
10889;DHT22;5497;51.388;6.780;2023-01-28T15:07:42;4.30;99.90
10889;DHT22;5497;51.388;6.780;2023-01-28T15:10:13;4.20;99.90
10889;DHT22;5497;51.388;6.780;2023-01-28T15:12:42;4.10;99.90
10889;DHT22;5497;51.388;6.780;2023-01-28T15:15:14;4.00;99.90
10889;DHT22;5497;51.388;6.780;2023-01-28T15:17:43;4.00;99.90
10889;DHT22;5497;51.388;6.780;2023-01-28T15:20:15;3.90;99.90
10889;DHT22;5497;51.388;6.780;2023-01-28T15:22:42;3.90;99.90
10889;DHT22;5497;51.388;6.780;2023-01-28T15:25:13;3.80;99.90
10889;DHT22;5497;51.388;6.780;2023-01-28T15:27:41;3.80;99.90
10889;DHT22;5497;51.388;6.780;2023-01-28T15:30:16;3.70;99.90
10889;DHT22;5497;51.388;6.780;2023-01-28T15:32:43;3.60;99.90
10889;DHT22;5497;51.388;6.780;2023-01-28T15:35:10;3.50;99.90
10889;DHT22;5497;51.388;6.780;2023-01-28T15:37:39;3.40;99.90
10889;DHT22;5497;51.388;6.780;2023-01-28T15:40:16;3.30;99.90
10889;DHT22;5497;51.388;6.780;2023-01-28T15:42:44;3.20;99.90
10889;DHT22;5497;51.388;6.780;2023-01-28T15:45:13;3.10;99.90
10889;DHT22;5497;51.388;6.780;2023-01-28T15:47:40;3.00;99.90
10889;DHT22;5497;51.388;6.780;2023-01-28T15:50:08;3.00;99.90
10889;DHT22;5497;51.388;6.780;2023-01-28T15:52:41;2.80;99.90
10889;DHT22;5497;51.388;6.780;2023-01-28T15:55:21;2.80;99.90
10889;DHT22;5497;51.388;6.780;2023-01-28T15:57:53;2.70;99.90
10889;DHT22;5497;51.388;6.780;2023-01-28T16:00:20;2.60;99.90
10889;DHT22;5497;51.388;6.780;2023-01-28T16:02:49;2.50;99.90
10889;DHT22;5497;51.388;6.780;2023-01-28T16:05:23;2.50;99.90
10889;DHT22;5497;51.388;6.780;2023-01-28T16:07:52;2.40;99.90
10889;DHT22;5497;51.388;6.780;2023-01-28T16:10:19;2.30;99.90
10889;DHT22;5497;51.388;6.780;2023-01-28T16:12:48;2.30;99.90
10889;DHT22;5497;51.388;6.780;2023-01-28T16:15:18;2.20;99.90
10889;DHT22;5497;51.388;6.780;2023-01-28T16:17:46;2.10;99.90
10889;DHT22;5497;51.388;6.780;2023-01-28T16:20:18;2.10;99.90
10889;DHT22;5497;51.388;6.780;2023-01-28T16:22:45;2.00;99.90
10889;DHT22;5497;51.388;6.780;2023-01-28T16:27:55;1.90;99.90
10889;DHT22;5497;51.388;6.780;2023-01-28T16:30:22;1.80;99.90